Flight Track Log - Related Links

Times and Time Zones

All times are in EDT time to prevent confusion due to time zone crossing. See the N81ER flight status page for this flight to view local times or setup timezone preferences in your user account.

Time Position Orientation Groundspeed Altitude Reporting Facility
EDT Latitude Longitude Course Direction KTS MPH feet Rate Location/Type
Fri 12:24:37 PM 33.5510 -117.8770 122° Southeast 261 300 5,000  Level FlightAware ADS-B
Fri 12:25:20 PM 33.5570 -117.8210 83° East 245 282 7,100 2,873 Climbing FlightAware ADS-B
Fri 12:25:48 PM 33.5660 -117.7690 78° East 256 295 8,400 2,459 Climbing FlightAware ADS-B
Fri 12:26:21 PM 33.5670 -117.7300 88° East 254 292 9,600 2,548 Climbing FlightAware ADS-B
Fri 12:27:01 PM 33.5710 -117.6620 86° East 258 297 11,500 2,500 Climbing FlightAware ADS-B
Fri 12:27:45 PM 33.5750 -117.6000 86° East 261 300 13,100 2,286 Climbing FlightAware ADS-B
Fri 12:28:25 PM 33.5790 -117.5410 85° East 260 299 14,700 2,325 Climbing FlightAware ADS-B
Fri 12:29:05 PM 33.5830 -117.4840 85° East 261 300 16,200 2,163 Climbing FlightAware ADS-B
Fri 12:29:51 PM 33.5860 -117.4170 87° East 267 307 17,800 1,048 Climbing FlightAware ADS-B
Fri 12:31:51 PM 33.5930 -117.2160 88° East 355 409 19,100 1,250 Climbing FlightAware ADS-B
Fri 12:33:51 PM 33.6010 -117.0000 87° East 310 357 22,800 1,463 Climbing FlightAware ADS-B
Fri 12:34:31 PM 33.6040 -116.9260 87° East 342 394 23,000 158 Climbing FlightAware ADS-B
Fri 12:35:07 PM 33.6060 -116.8580 88° East 362 417 23,000  Level FlightAware ADS-B
Fri 12:35:33 PM 33.6080 -116.8050 87° East 370 426 23,000 69 Level FlightAware ADS-B
Fri 12:36:34 PM 33.6120 -116.6750 88° East 372 428 23,100 1,087 Climbing FlightAware ADS-B
Fri 12:37:40 PM 33.6160 -116.5480 88° East 331 381 25,300 1,966 Climbing FlightAware ADS-B
Fri 12:38:30 PM 33.6190 -116.4590 88° East 317 365 26,900 1,923 Climbing FlightAware ADS-B
Fri 12:38:58 PM 33.6220 -116.4100 86° East 313 360 27,800 1,636 Climbing FlightAware ADS-B
Fri 12:39:36 PM 33.6250 -116.3440 87° East 317 365 28,700 1,154 Climbing FlightAware ADS-B
Fri 12:40:42 PM 33.6270 -116.2350 89° East 330 380 29,800 1,034 Climbing FlightAware ADS-B
Fri 12:41:32 PM 33.6270 -116.1390 90° East 335 386 30,700 1,059 Climbing FlightAware ADS-B
Fri 12:42:07 PM 33.6260 -116.0810 91° East 338 389 31,300 1,125 Climbing FlightAware ADS-B
Fri 12:42:52 PM 33.6370 -115.9920 82° East 342 394 32,200 1,213 Climbing FlightAware ADS-B
Fri 12:43:36 PM 33.6740 -115.9120 61° Northeast 344 396 33,100 1,116 Climbing FlightAware ADS-B
Fri 12:44:18 PM 33.7080 -115.8450 59° Northeast 345 397 33,800 716 Climbing FlightAware ADS-B
Fri 12:50:18 PM 33.9910 -115.2690 59° Northeast 362 417 37,900 698 Climbing FlightAware ADS-B
Fri 12:51:02 PM 34.0230 -115.1830 66° East 361 415 38,500 723 Climbing FlightAware ADS-B
Fri 12:51:41 PM 34.0560 -115.0940 66° East 364 419 38,900 519 Climbing FlightAware ADS-B
Fri 12:52:46 PM 34.1060 -114.9630 65° Northeast 367 422 39,400 294 Climbing FlightAware ADS-B
Fri 12:53:23 PM 34.1280 -114.9050 65° Northeast 367 422 39,400 741 Level FlightAware ADS-B
Fri 12:54:07 PM 34.1780 -114.8060 59° Northeast 370 426 40,400 988 Climbing FlightAware ADS-B
Fri 12:54:48 PM 34.2130 -114.7340 60° Northeast 371 427 40,800 456 Climbing FlightAware ADS-B
Fri 12:55:26 PM 34.2460 -114.6650 60° Northeast 375 432 41,000 154 Climbing FlightAware ADS-B
Fri 12:56:06 PM 34.2810 -114.5930 60° Northeast 383 441 41,000  Level FlightAware ADS-B
Fri 12:57:37 PM 34.3620 -114.4240 60° Northeast 393 452 41,000  Level FlightAware ADS-B
Fri 12:58:19 PM 34.4020 -114.3410 60° Northeast 396 456 41,000  Level FlightAware ADS-B
Fri 12:58:55 PM 34.4350 -114.2710 60° Northeast 397 457 41,000  Level FlightAware ADS-B
Fri 12:59:43 PM 34.4780 -114.1800 60° Northeast 396 456 41,000  Level FlightAware ADS-B
Fri 01:01:49 PM 34.5920 -113.9390 60° Northeast 393 452 41,000  Level FlightAware ADS-B
Fri 01:02:41 PM 34.6410 -113.8370 60° Northeast 392 451 41,000  Level FlightAware ADS-B
Fri 01:03:21 PM 34.6770 -113.7600 60° Northeast 391 450 41,000  Level FlightAware ADS-B
Fri 01:04:05 PM 34.7150 -113.6780 61° Northeast 390 449 41,000  Level FlightAware ADS-B
Fri 01:04:43 PM 34.7490 -113.6050 60° Northeast 390 449 41,000  Level FlightAware ADS-B
Fri 01:05:39 PM 34.8000 -113.4970 60° Northeast 391 450 41,000  Level FlightAware ADS-B
Fri 01:08:15 PM 34.9380 -113.1990 60° Northeast 395 455 41,000  Level FlightAware ADS-B
Fri 01:08:55 PM 34.9750 -113.1190 61° Northeast 396 456 41,000  Level FlightAware ADS-B
Fri 01:09:39 PM 35.0130 -113.0350 61° Northeast 398 458 41,000 150 Level FlightAware ADS-B
Fri 01:10:15 PM 35.0460 -112.9630 61° Northeast 395 455 41,200 360 Climbing FlightAware ADS-B
Fri 01:12:09 PM 35.1390 -112.7630 60° Northeast 382 440 41,900 649 Climbing FlightAware ADS-B
Fri 01:12:43 PM 35.1670 -112.7000 61° Northeast 374 430 42,800 918 Climbing FlightAware ADS-B
Fri 01:13:34 PM 35.2150 -112.5930 61° Northeast 372 428 43,200 452 Climbing FlightAware ADS-B
Fri 01:14:16 PM 35.2490 -112.5180 61° Northeast 370 426 43,500 456 Climbing FlightAware ADS-B
Fri 01:14:53 PM 35.2780 -112.4540 61° Northeast 368 423 43,800 472 Climbing FlightAware ADS-B
Fri 01:15:45 PM 35.3181 -112.3625 61° Northeast 369 425 44,200 474 Climbing Albuquerque Center
Fri 01:16:47 PM 35.3656 -112.2561 61° Northeast 364 419 44,700 480 Climbing Albuquerque Center
Fri 01:17:25 PM 35.3944 -112.1919 61° Northeast 360 414 45,000 180 Climbing Los Angeles Center
Fri 01:18:27 PM 35.4422 -112.0833 62° Northeast 364 419 45,000  Level Los Angeles Center
Fri 01:23:34 PM 35.7020 -111.5030 62° Northeast 386 444 45,000  Level FlightAware ADS-B
Fri 01:24:18 PM 35.7390 -111.4170 62° Northeast 386 444 45,000  Level FlightAware ADS-B
Fri 01:25:16 PM 35.7930 -111.2940 62° Northeast 387 445 45,000  Level FlightAware ADS-B
Fri 01:25:56 PM 35.8340 -111.2010 61° Northeast 388 447 45,000  Level FlightAware ADS-B
Fri 01:26:46 PM 35.8750 -111.1050 62° Northeast 388 447 45,000  Level FlightAware ADS-B
Fri 01:27:56 PM 35.9350 -110.9680 62° Northeast 388 447 45,000  Level FlightAware ADS-B
Fri 01:28:54 PM 35.9840 -110.8540 62° Northeast 388 447 45,000  Level FlightAware ADS-B
Fri 01:29:50 PM 36.0310 -110.7440 62° Northeast 388 447 45,000  Level FlightAware ADS-B
Fri 01:33:13 PM 36.2010 -110.3470 62° Northeast 389 448 45,000  Level FlightAware ADS-B
Fri 01:33:55 PM 36.2360 -110.2630 63° Northeast 390 449 45,000  Level FlightAware ADS-B
Fri 01:34:37 PM 36.2710 -110.1800 62° Northeast 390 449 45,000  Level FlightAware ADS-B
Fri 01:37:14 PM 36.4010 -109.8710 62° Northeast 389 448 45,000  Level FlightAware ADS-B
Fri 01:37:55 PM 36.4340 -109.7930 62° Northeast 389 448 45,000  Level FlightAware ADS-B
Fri 01:38:52 PM 36.4790 -109.6840 63° Northeast 389 448 45,000  Level FlightAware ADS-B
Fri 01:39:28 PM 36.5050 -109.6240 62° Northeast 389 448 45,000  Level FlightAware ADS-B
Fri 01:40:40 PM 36.5570 -109.5030 62° Northeast 389 448 45,000  Level FlightAware ADS-B
Fri 01:43:17 PM 36.6700 -109.2390 62° Northeast 389 448 45,000  Level FlightAware ADS-B
Fri 01:43:53 PM 36.6960 -109.1780 62° Northeast 389 448 45,000  Level FlightAware ADS-B
Fri 01:44:40 PM 36.7290 -109.0990 62° Northeast 389 448 45,000  Level FlightAware ADS-B
Fri 01:45:16 PM 36.7550 -109.0380 62° Northeast 389 448 45,000  Level FlightAware ADS-B
Fri 01:46:25 PM 36.8490 -108.7810 65° Northeast 45,000  Level FlightAware ADS-B
Fri 01:47:16 PM 36.8880 -108.6860 63° Northeast 385 443 45,000  Level FlightAware ADS-B
Fri 01:47:56 PM 36.9210 -108.6040 63° Northeast 386 444 45,000  Level FlightAware ADS-B
Fri 01:48:38 PM 36.9530 -108.5230 64° Northeast 386 444 45,000  Level FlightAware ADS-B
Fri 01:49:21 PM 36.9880 -108.4370 63° Northeast 388 447 45,000  Level FlightAware ADS-B
Fri 01:50:18 PM 37.0330 -108.3230 64° Northeast 389 448 45,000  Level FlightAware ADS-B
Fri 01:51:26 PM 37.0850 -108.1930 63° Northeast 390 449 45,000  Level FlightAware ADS-B
Fri 01:52:10 PM 37.1260 -108.0900 63° Northeast 392 451 45,000  Level FlightAware ADS-B
Fri 01:52:52 PM 37.1560 -108.0130 64° Northeast 393 452 45,000  Level FlightAware ADS-B
Fri 01:53:28 PM 37.1850 -107.9400 63° Northeast 393 452 45,000  Level FlightAware ADS-B
Fri 01:54:10 PM 37.2210 -107.8480 64° Northeast 393 452 45,000  Level FlightAware ADS-B
Fri 01:54:53 PM 37.2560 -107.7580 64° Northeast 392 451 45,000  Level FlightAware ADS-B
Fri 01:55:36 PM 37.2910 -107.6690 64° Northeast 391 450 45,000  Level FlightAware ADS-B
Fri 01:56:14 PM 37.3180 -107.5990 64° Northeast 392 451 45,000  Level FlightAware ADS-B
Fri 01:57:01 PM 37.3560 -107.5010 64° Northeast 392 451 45,000  Level FlightAware ADS-B
Fri 01:57:26 PM 37.3780 -107.4450 64° Northeast 391 450 45,000  Level FlightAware ADS-B
Fri 01:58:24 PM 37.4240 -107.3270 64° Northeast 391 450 45,000  Level FlightAware ADS-B
Fri 01:59:23 PM 37.4690 -107.2100 64° Northeast 390 449 45,000  Level FlightAware ADS-B
Fri 02:00:03 PM 37.5010 -107.1260 64° Northeast 391 450 45,000  Level FlightAware ADS-B
Fri 02:00:35 PM 37.5270 -107.0580 64° Northeast 392 451 45,000  Level FlightAware ADS-B
Fri 02:01:10 PM 37.5545 -106.9860 64° Northeast 393 452 45,000  Level FlightAware ADS-B
Fri 02:01:40 PM 37.5784 -106.9240 64° Northeast 393 452 45,000  Level FlightAware ADS-B
Fri 02:02:10 PM 37.6020 -106.8620 64° Northeast 393 452 45,000  Level FlightAware ADS-B
Fri 02:02:44 PM 37.6285 -106.7920 64° Northeast 394 453 45,000  Level FlightAware ADS-B
Fri 02:03:14 PM 37.6524 -106.7290 64° Northeast 395 455 45,000  Level FlightAware ADS-B
Fri 02:03:52 PM 37.6815 -106.6520 64° Northeast 395 455 45,000  Level FlightAware ADS-B
Fri 02:04:30 PM 37.7120 -106.5710 65° Northeast 395 455 45,000  Level FlightAware ADS-B
Fri 02:05:16 PM 37.7477 -106.4760 65° Northeast 396 456 45,000  Level FlightAware ADS-B
Fri 02:06:04 PM 37.7855 -106.3750 65° Northeast 397 457 45,000  Level FlightAware ADS-B
Fri 02:06:44 PM 37.8164 -106.2920 65° Northeast 398 458 45,000  Level FlightAware ADS-B
Fri 02:07:26 PM 37.8493 -106.2040 65° Northeast 399 459 45,000  Level FlightAware ADS-B
Fri 02:07:59 PM 37.8755 -106.1330 65° Northeast 401 461 45,000  Level FlightAware ADS-B
Fri 02:08:38 PM 37.9060 -106.0510 65° Northeast 402 463 45,000  Level FlightAware ADS-B
Fri 02:09:08 PM 37.9297 -105.9870 65° Northeast 402 463 45,000  Level FlightAware ADS-B
Fri 02:09:48 PM 37.9611 -105.9020 65° Northeast 401 461 45,000  Level FlightAware ADS-B
Fri 02:10:19 PM 37.9851 -105.8370 65° Northeast 401 461 45,000  Level FlightAware ADS-B
Fri 02:10:52 PM 38.0108 -105.7670 65° Northeast 401 461 45,000  Level FlightAware ADS-B
Fri 02:11:22 PM 38.0346 -105.7020 65° Northeast 402 463 45,000  Level FlightAware ADS-B
Fri 02:11:53 PM 38.0589 -105.6360 65° Northeast 403 464 45,000  Level FlightAware ADS-B
Fri 02:12:23 PM 38.0823 -105.5710 65° Northeast 403 464 45,000  Level FlightAware ADS-B
Fri 02:12:53 PM 38.1059 -105.5060 65° Northeast 403 464 45,000  Level FlightAware ADS-B
Fri 02:13:27 PM 38.1317 -105.4360 65° Northeast 403 464 45,000  Level FlightAware ADS-B
Fri 02:13:57 PM 38.1551 -105.3710 65° Northeast 404 465 45,000  Level FlightAware ADS-B
Fri 02:14:27 PM 38.1786 -105.3060 65° Northeast 404 465 45,000  Level FlightAware ADS-B
Fri 02:14:58 PM 38.2025 -105.2400 65° Northeast 405 466 45,000  Level FlightAware ADS-B
Fri 02:15:29 PM 38.2266 -105.1730 65° Northeast 405 466 45,000  Level FlightAware ADS-B
Fri 02:15:59 PM 38.2505 -105.1060 66° East 405 466 45,000  Level FlightAware ADS-B
Fri 02:16:31 PM 38.2747 -105.0390 65° Northeast 406 467 45,000  Level FlightAware ADS-B
Fri 02:17:04 PM 38.3005 -104.9670 65° Northeast 405 466 45,000  Level FlightAware ADS-B
Fri 02:17:36 PM 38.3252 -104.8980 65° Northeast 406 467 45,000  Level FlightAware ADS-B
Fri 02:18:10 PM 38.3517 -104.8230 66° East 405 466 45,000  Level FlightAware ADS-B
Fri 02:18:43 PM 38.3770 -104.7520 66° East 406 467 45,000  Level FlightAware ADS-B
Fri 02:19:25 PM 38.4070 -104.6670 66° East 405 466 45,000  Level FlightAware ADS-B
Fri 02:19:31 PM 38.4143 -104.6460 66° East 406 467 45,000  Level FlightAware ADS-B
Fri 02:20:02 PM 38.4375 -104.5810 65° Northeast 406 467 45,000  Level FlightAware ADS-B
Fri 02:20:32 PM 38.4609 -104.5140 66° East 406 467 45,000  Level FlightAware ADS-B
Fri 02:21:03 PM 38.4847 -104.4460 66° East 406 467 45,000  Level FlightAware ADS-B
Fri 02:21:33 PM 38.5077 -104.3810 66° East 406 467 45,000  Level FlightAware ADS-B
Fri 02:22:04 PM 38.5310 -104.3140 66° East 408 470 45,000  Level FlightAware ADS-B
Fri 02:22:34 PM 38.5542 -104.2480 66° East 409 471 45,000  Level FlightAware ADS-B
Fri 02:23:05 PM 38.5780 -104.1790 66° East 409 471 45,000  Level FlightAware ADS-B
Fri 02:23:35 PM 38.6013 -104.1120 66° East 410 472 45,000  Level FlightAware ADS-B
Fri 02:24:06 PM 38.6246 -104.0450 66° East 410 472 45,000  Level FlightAware ADS-B
Fri 02:24:37 PM 38.6481 -103.9770 66° East 411 473 45,000  Level FlightAware ADS-B
Fri 02:25:07 PM 38.6716 -103.9090 66° East 412 474 45,000  Level FlightAware ADS-B
Fri 02:25:38 PM 38.6952 -103.8400 66° East 412 474 45,000  Level FlightAware ADS-B
Fri 02:26:08 PM 38.7183 -103.7730 66° East 413 475 45,000  Level FlightAware ADS-B
Fri 02:26:38 PM 38.7414 -103.7060 66° East 414 476 45,000  Level FlightAware ADS-B
Fri 02:27:09 PM 38.7645 -103.6380 66° East 415 478 45,000  Level FlightAware ADS-B
Fri 02:27:39 PM 38.7874 -103.5710 66° East 414 476 45,000  Level FlightAware ADS-B
Fri 02:28:10 PM 38.8117 -103.5000 66° East 414 476 45,000  Level FlightAware ADS-B
Fri 02:28:40 PM 38.8343 -103.4320 67° East 409 471 45,000  Level FlightAware ADS-B
Fri 02:29:11 PM 38.8568 -103.3660 66° East 399 459 45,000  Level FlightAware ADS-B
Fri 02:29:41 PM 38.8789 -103.3000 67° East 391 450 45,000  Level FlightAware ADS-B
Fri 02:30:12 PM 38.9011 -103.2360 66° East 395 455 45,000  Level FlightAware ADS-B
Fri 02:30:42 PM 38.9228 -103.1710 67° East 399 459 45,000  Level FlightAware ADS-B
Fri 02:31:13 PM 38.9457 -103.1020 67° East 403 464 45,000  Level FlightAware ADS-B
Fri 02:31:43 PM 38.9679 -103.0360 67° East 404 465 45,000  Level FlightAware ADS-B
Fri 02:32:13 PM 38.9900 -102.9700 67° East 405 466 45,000  Level FlightAware ADS-B
Fri 02:32:44 PM 39.0123 -102.9030 67° East 405 466 45,000  Level FlightAware ADS-B
Fri 02:33:16 PM 39.0364 -102.8300 67° East 406 467 45,000  Level FlightAware ADS-B
Fri 02:33:47 PM 39.0587 -102.7630 67° East 406 467 45,000  Level FlightAware ADS-B
Fri 02:34:17 PM 39.0809 -102.6960 67° East 408 470 45,000  Level FlightAware ADS-B
Fri 02:34:47 PM 39.1032 -102.6290 67° East 410 472 45,000  Level FlightAware ADS-B
Fri 02:35:18 PM 39.1257 -102.5600 67° East 410 472 45,000  Level FlightAware ADS-B
Fri 02:35:51 PM 39.1504 -102.4850 67° East 412 474 45,000  Level FlightAware ADS-B
Fri 02:36:22 PM 39.1734 -102.4140 67° East 413 475 45,000  Level FlightAware ADS-B
Fri 02:36:53 PM 39.1959 -102.3460 67° East 412 474 45,000  Level FlightAware ADS-B
Fri 02:37:23 PM 39.2183 -102.2770 67° East 412 474 45,000  Level FlightAware ADS-B
Fri 02:37:54 PM 39.2407 -102.2080 67° East 413 475 45,000  Level FlightAware ADS-B
Fri 02:38:24 PM 39.2628 -102.1400 67° East 414 476 45,000  Level FlightAware ADS-B
Fri 02:38:54 PM 39.2852 -102.0700 68° East 412 474 45,000  Level FlightAware ADS-B
Fri 02:39:25 PM 39.3075 -102.0010 67° East 414 476 45,000  Level FlightAware ADS-B
Fri 02:39:55 PM 39.3298 -101.9320 67° East 413 475 45,000  Level FlightAware ADS-B
Fri 02:40:27 PM 39.3529 -101.8600 67° East 413 475 45,000  Level FlightAware ADS-B
Fri 02:40:57 PM 39.3750 -101.7910 67° East 414 476 45,000  Level FlightAware ADS-B
Fri 02:41:28 PM 39.3974 -101.7210 67° East 414 476 45,000  Level FlightAware ADS-B
Fri 02:41:59 PM 39.4202 -101.6500 67° East 415 478 45,000  Level FlightAware ADS-B
Fri 02:42:31 PM 39.4436 -101.5760 68° East 416 479 45,000  Level FlightAware ADS-B
Fri 02:43:01 PM 39.4656 -101.5070 68° East 416 479 45,000  Level FlightAware ADS-B
Fri 02:43:31 PM 39.4875 -101.4370 68° East 416 479 45,000  Level FlightAware ADS-B
Fri 02:44:02 PM 39.5093 -101.3680 68° East 417 480 45,000  Level FlightAware ADS-B
Fri 02:44:32 PM 39.5311 -101.2990 68° East 418 481 45,000  Level FlightAware ADS-B
Fri 02:45:03 PM 39.5538 -101.2270 68° East 416 479 45,000  Level FlightAware ADS-B
Fri 02:45:36 PM 39.5774 -101.1510 68° East 416 479 45,000  Level FlightAware ADS-B
Fri 02:46:08 PM 39.6004 -101.0770 68° East 417 480 45,000  Level FlightAware ADS-B
Fri 02:46:38 PM 39.6223 -101.0070 68° East 414 476 45,000  Level FlightAware ADS-B
Fri 02:47:08 PM 39.6436 -100.9380 68° East 409 471 45,000  Level FlightAware ADS-B
Fri 02:47:39 PM 39.6651 -100.8690 68° East 412 474 45,000  Level FlightAware ADS-B
Fri 02:48:11 PM 39.6876 -100.7960 68° East 412 474 45,000  Level FlightAware ADS-B
Fri 02:48:41 PM 39.7093 -100.7260 68° East 412 474 45,000  Level FlightAware ADS-B
Fri 02:49:11 PM 39.7304 -100.6570 68° East 412 474 45,000  Level FlightAware ADS-B
Fri 02:49:41 PM 39.7516 -100.5880 68° East 413 475 45,000  Level FlightAware ADS-B
Fri 02:50:12 PM 39.7728 -100.5180 68° East 414 476 45,000  Level FlightAware ADS-B
Fri 02:50:42 PM 39.7944 -100.4480 68° East 415 478 45,000  Level FlightAware ADS-B
Fri 02:54:12 PM 39.9421 -99.9581 68° East 414 476 45,000  Level FlightAware ADS-B
Fri 02:54:44 PM 39.9632 -99.8869 69° East 401 461 45,000  Level FlightAware ADS-B
Fri 02:55:15 PM 39.9844 -99.8168 68° East 401 461 45,000  Level FlightAware ADS-B
Fri 02:56:08 PM 40.0199 -99.6971 69° East 405 466 45,000  Level FlightAware ADS-B
Fri 02:56:38 PM 40.0400 -99.6290 69° East 400 460 45,000  Level FlightAware ADS-B
Fri 02:57:13 PM 40.0633 -99.5499 69° East 402 463 45,000  Level FlightAware ADS-B
Fri 02:57:46 PM 40.0851 -99.4759 69° East 408 470 45,000  Level FlightAware ADS-B
Fri 02:58:16 PM 40.1058 -99.4053 69° East 411 473 45,000  Level FlightAware ADS-B
Fri 02:58:55 PM 40.1322 -99.3150 69° East 414 476 45,000  Level FlightAware ADS-B
Fri 02:59:26 PM 40.1535 -99.2421 69° East 416 479 45,000  Level FlightAware ADS-B
Fri 03:01:17 PM 40.2296 -98.9793 69° East 422 486 45,000  Level FlightAware ADS-B
Fri 03:01:47 PM 40.2501 -98.9081 69° East 422 486 45,000  Level FlightAware ADS-B
Fri 03:02:17 PM 40.2706 -98.8366 69° East 422 486 45,000  Level FlightAware ADS-B
Fri 03:02:47 PM 40.2912 -98.7648 69° East 418 481 45,000  Level FlightAware ADS-B
Fri 03:03:18 PM 40.3112 -98.6943 70° East 409 471 45,000  Level FlightAware ADS-B
Fri 03:03:48 PM 40.3310 -98.6248 69° East 410 472 45,000  Level FlightAware ADS-B
Fri 03:04:18 PM 40.3511 -98.5542 69° East 413 475 45,000  Level FlightAware ADS-B
Fri 03:04:48 PM 40.3712 -98.4831 70° East 415 478 45,000  Level FlightAware ADS-B
Fri 03:05:19 PM 40.3919 -98.4097 70° East 417 480 45,000  Level FlightAware ADS-B
Fri 03:06:03 PM 40.4209 -98.3066 70° East 420 483 45,000  Level FlightAware ADS-B
Fri 03:06:33 PM 40.4412 -98.2346 70° East 419 482 45,000  Level FlightAware ADS-B
Fri 03:07:04 PM 40.4618 -98.1608 70° East 422 486 45,000  Level FlightAware ADS-B
Fri 03:07:38 PM 40.4843 -98.0801 70° East 423 487 45,000  Level FlightAware ADS-B
Fri 03:08:09 PM 40.5050 -98.0056 70° East 423 487 45,000  Level FlightAware ADS-B
Fri 03:08:39 PM 40.5250 -97.9330 70° East 423 487 45,000  Level FlightAware ADS-B
Fri 03:09:09 PM 40.5454 -97.8592 70° East 423 487 45,000  Level FlightAware ADS-B
Fri 03:09:39 PM 40.5655 -97.7865 70° East 424 488 45,000  Level FlightAware ADS-B
Fri 03:10:11 PM 40.5865 -97.7098 70° East 425 489 45,000  Level FlightAware ADS-B
Fri 03:10:41 PM 40.6065 -97.6368 70° East 425 489 45,000  Level FlightAware ADS-B
Fri 03:11:11 PM 40.6266 -97.5634 70° East 426 490 45,000  Level FlightAware ADS-B
Fri 03:11:41 PM 40.6465 -97.4903 70° East 427 491 45,000  Level FlightAware ADS-B
Fri 03:12:12 PM 40.6668 -97.4156 70° East 427 491 45,000  Level FlightAware ADS-B
Fri 03:12:43 PM 40.6869 -97.3412 70° East 427 491 45,000  Level FlightAware ADS-B
Fri 03:13:14 PM 40.7073 -97.2656 70° East 426 490 45,000  Level FlightAware ADS-B
Fri 03:13:45 PM 40.7277 -97.1898 70° East 426 490 45,000  Level FlightAware ADS-B
Fri 03:14:22 PM 40.7424 -97.1350 70° East 426 490 45,000  Level FlightAware ADS-B
Fri 03:14:57 PM 40.7755 -97.0113 71° East 429 494 45,000  Level FlightAware ADS-B
Fri 03:15:28 PM 40.7953 -96.9366 71° East 432 497 45,000  Level FlightAware ADS-B
Fri 03:15:58 PM 40.8153 -96.8616 71° East 433 498 45,000  Level FlightAware ADS-B
Fri 03:16:28 PM 40.8355 -96.7850 71° East 435 501 45,000  Level FlightAware ADS-B
Fri 03:16:59 PM 40.8555 -96.7092 71° East 436 502 45,000  Level FlightAware ADS-B
Fri 03:17:30 PM 40.8760 -96.6315 71° East 438 504 45,000  Level FlightAware ADS-B
Fri 03:18:01 PM 40.8967 -96.5524 71° East 437 503 45,000  Level FlightAware ADS-B
Fri 03:18:31 PM 40.9165 -96.4767 71° East 437 503 45,000  Level FlightAware ADS-B
Fri 03:19:02 PM 40.9363 -96.4005 71° East 436 502 45,000  Level FlightAware ADS-B
Fri 03:19:32 PM 40.9563 -96.3237 71° East 438 504 45,000  Level FlightAware ADS-B
Fri 03:20:03 PM 40.9762 -96.2468 71° East 437 503 45,000  Level FlightAware ADS-B
Fri 03:20:33 PM 40.9960 -96.1700 71° East 435 501 45,000  Level FlightAware ADS-B
Fri 03:21:04 PM 41.0155 -96.0940 71° East 417 480 45,000  Level FlightAware ADS-B
Fri 03:21:35 PM 41.0345 -96.0198 71° East 414 476 45,000  Level FlightAware ADS-B
Fri 03:22:07 PM 41.0541 -95.9437 71° East 417 480 45,000  Level FlightAware ADS-B
Fri 03:22:37 PM 41.0728 -95.8703 71° East 420 483 45,000  Level FlightAware ADS-B
Fri 03:25:03 PM 41.1625 -95.5153 71° East 424 488 45,000  Level FlightAware ADS-B
Fri 03:25:33 PM 41.1820 -95.4371 72° East 425 489 45,000  Level FlightAware ADS-B
Fri 03:26:03 PM 41.2007 -95.3623 72° East 425 489 45,000  Level FlightAware ADS-B
Fri 03:26:34 PM 41.2194 -95.2872 72° East 425 489 45,000  Level FlightAware ADS-B
Fri 03:27:05 PM 41.2382 -95.2113 72° East 424 488 45,000  Level FlightAware ADS-B
Fri 03:27:36 PM 41.2573 -95.1339 72° East 423 487 45,000  Level FlightAware ADS-B
Fri 03:28:07 PM 41.2761 -95.0577 72° East 421 484 45,000  Level FlightAware ADS-B
Fri 03:28:37 PM 41.2941 -94.9845 72° East 418 481 45,000  Level FlightAware ADS-B
Fri 03:29:07 PM 41.3120 -94.9110 72° East 416 479 45,000  Level FlightAware ADS-B
Fri 03:29:38 PM 41.3303 -94.8359 72° East 415 478 45,000  Level FlightAware ADS-B
Fri 03:30:09 PM 41.3482 -94.7624 72° East 416 479 45,000  Level FlightAware ADS-B
Fri 03:30:39 PM 41.3663 -94.6879 72° East 414 476 45,000  Level FlightAware ADS-B
Fri 03:31:10 PM 41.3841 -94.6139 72° East 414 476 45,000  Level FlightAware ADS-B
Fri 03:31:41 PM 41.4020 -94.5400 72° East 412 474 45,000  Level FlightAware ADS-B
Fri 03:32:11 PM 41.4194 -94.4675 72° East 411 473 45,000  Level FlightAware ADS-B
Fri 03:32:42 PM 41.4377 -94.3908 72° East 411 473 45,000  Level FlightAware ADS-B
Fri 03:33:15 PM 41.4564 -94.3128 72° East 412 474 45,000  Level FlightAware ADS-B
Fri 03:33:45 PM 41.4737 -94.2400 72° East 411 473 45,000  Level FlightAware ADS-B
Fri 03:34:18 PM 41.4922 -94.1620 72° East 410 472 45,000  Level FlightAware ADS-B
Fri 03:35:11 PM 41.5223 -94.0343 72° East 408 470 45,000  Level FlightAware ADS-B
Fri 03:35:41 PM 41.5395 -93.9610 73° East 408 470 45,000  Level FlightAware ADS-B
Fri 03:36:12 PM 41.5569 -93.8866 73° East 408 470 45,000  Level FlightAware ADS-B
Fri 03:36:43 PM 41.5737 -93.8144 73° East 407 468 45,000  Level FlightAware ADS-B
Fri 03:37:13 PM 41.5909 -93.7406 73° East 407 468 45,000  Level FlightAware ADS-B
Fri 03:37:44 PM 41.6078 -93.6677 73° East 408 470 45,000  Level FlightAware ADS-B
Fri 03:38:14 PM 41.6245 -93.5954 73° East 408 470 45,000  Level FlightAware ADS-B
Fri 03:38:44 PM 41.6413 -93.5226 73° East 408 470 45,000  Level FlightAware ADS-B
Fri 03:39:15 PM 41.6584 -93.4479 73° East 409 471 45,000  Level FlightAware ADS-B
Fri 03:39:45 PM 41.6751 -93.3751 73° East 410 472 45,000  Level FlightAware ADS-B
Fri 03:40:15 PM 41.6917 -93.3023 73° East 411 473 45,000  Level FlightAware ADS-B
Fri 03:40:46 PM 41.7087 -93.2274 73° East 411 473 45,000  Level FlightAware ADS-B
Fri 03:41:18 PM 41.7258 -93.1518 73° East 412 474 45,000  Level FlightAware ADS-B
Fri 03:41:49 PM 41.7432 -93.0747 73° East 413 475 45,000  Level FlightAware ADS-B
Fri 03:42:20 PM 41.7599 -93.0004 73° East 413 475 45,000  Level FlightAware ADS-B
Fri 03:42:51 PM 41.7769 -92.9244 73° East 413 475 45,000  Level FlightAware ADS-B
Fri 03:43:21 PM 41.7934 -92.8506 73° East 412 474 45,000  Level FlightAware ADS-B
Fri 03:43:51 PM 41.8098 -92.7768 73° East 413 475 45,000  Level FlightAware ADS-B
Fri 03:44:21 PM 41.8262 -92.7031 73° East 412 474 45,000  Level FlightAware ADS-B
Fri 03:44:54 PM 41.8439 -92.6231 73° East 412 474 45,000  Level FlightAware ADS-B
Fri 03:45:26 PM 41.8575 -92.5608 73° East 409 471 45,000  Level Chicago Center
Fri 03:46:28 PM 41.8897 -92.4144 73° East 411 473 45,000  Level Chicago Center
Fri 03:47:30 PM 41.9214 -92.2683 74° East 413 475 45,000  Level Chicago Center
Fri 03:48:32 PM 41.9533 -92.1206 74° East 417 480 45,000 -877 Level Chicago Center
Fri 03:54:41 PM 42.1550 -91.1620 74° East 429 494 38,700 -1,101 Descending FlightAware ADS-B
Fri 03:55:37 PM 42.1900 -90.9960 74° East 445 512 37,200 -1,541 Descending FlightAware ADS-B
Fri 03:56:30 PM 42.2170 -90.8590 75° East 427 491 35,900 -1,500 Descending FlightAware ADS-B
Fri 03:57:09 PM 42.2380 -90.7590 74° East 426 490 34,900 -1,478 Descending FlightAware ADS-B
Fri 03:57:39 PM 42.2540 -90.6810 74° East 444 511 34,200 -1,452 Descending FlightAware ADS-B
Fri 03:58:11 PM 42.2710 -90.5940 75° East 442 509 33,400 -1,500 Descending FlightAware ADS-B
Fri 03:58:55 PM 42.2930 -90.4820 75° East 439 505 32,300 -1,500 Descending FlightAware ADS-B
Fri 03:59:35 PM 42.3140 -90.3770 75° East 439 505 31,300 -1,579 Descending FlightAware ADS-B
Fri 04:00:11 PM 42.3340 -90.2750 75° East 446 513 30,300 -1,556 Descending FlightAware ADS-B
Fri 04:00:56 PM 42.3570 -90.1570 75° East 439 505 29,200 -1,435 Descending FlightAware ADS-B
Fri 04:01:43 PM 42.3820 -90.0320 75° East 437 503 28,100 -1,071 Descending FlightAware ADS-B
Fri 04:02:20 PM 42.4010 -89.9360 75° East 431 496 27,700 -1,143 Descending FlightAware ADS-B
Fri 04:03:07 PM 42.4230 -89.8170 76° East 413 475 26,500 -1,517 Descending FlightAware ADS-B
Fri 04:03:47 PM 42.4420 -89.7190 75° East 410 472 25,500 -1,500 Descending FlightAware ADS-B
Fri 04:04:31 PM 42.4630 -89.6080 76° East 401 461 24,400 -1,157 Descending FlightAware ADS-B
Fri 04:05:10 PM 42.4800 -89.5200 75° East 377 434 23,900 -1,214 Descending FlightAware ADS-B
Fri 04:05:55 PM 42.5010 -89.4130 75° East 389 448 22,700 -1,605 Descending FlightAware ADS-B
Fri 04:06:36 PM 42.5190 -89.3170 76° East 385 443 21,600 -1,590 Descending FlightAware ADS-B
Fri 04:07:18 PM 42.5370 -89.2180 76° East 385 443 20,500 -1,571 Descending FlightAware ADS-B
Fri 04:08:00 PM 42.5550 -89.1210 76° East 373 429 19,400 -1,586 Descending FlightAware ADS-B
Fri 04:08:45 PM 42.5740 -89.0220 75° East 369 425 18,200 -1,650 Descending FlightAware ADS-B
Fri 04:09:20 PM 42.5880 -88.9430 76° East 360 414 17,200 -1,650 Descending FlightAware ADS-B
Fri 04:10:05 PM 42.6060 -88.8470 76° East 351 404 16,000 -1,586 Descending FlightAware ADS-B
Fri 04:10:47 PM 42.6230 -88.7570 76° East 348 400 14,900 -1,562 Descending FlightAware ADS-B
Fri 04:11:18 PM 42.6350 -88.6910 76° East 347 399 14,100 -1,606 Descending FlightAware ADS-B
Fri 04:11:58 PM 42.6500 -88.6080 76° East 331 381 13,000 -1,610 Descending FlightAware ADS-B
Fri 04:12:40 PM 42.6650 -88.5250 76° East 321 369 11,900 -1,615 Descending FlightAware ADS-B
Fri 04:13:16 PM 42.6770 -88.4590 76° East 311 358 10,900 -1,629 Descending FlightAware ADS-B
Fri 04:13:50 PM 42.6890 -88.3940 76° East 295 339 10,000 -1,574 Descending FlightAware ADS-B
Fri 04:14:17 PM 42.6970 -88.3470 77° East 293 337 9,300 -1,527 Descending FlightAware ADS-B
Fri 04:14:45 PM 42.7060 -88.2970 76° East 293 337 8,600 -1,636 Descending FlightAware ADS-B
Fri 04:15:01 PM 42.7140 -88.2690 69° East 289 333 8,100 -1,688 Descending FlightAware ADS-B
Fri 04:15:49 PM 42.7410 -88.1920 64° Northeast 262 302 6,800 -1,556 Descending FlightAware ADS-B
Fri 04:16:22 PM 42.7580 -88.1460 63° Northeast 240 276 6,000 -1,500 Descending FlightAware ADS-B
Fri 04:16:53 PM 42.7720 -88.1060 64° Northeast 228 262 5,200 -1,607 Descending FlightAware ADS-B
Fri 04:17:18 PM 42.7840 -88.0710 65° Northeast 211 243 4,500 -964 Descending FlightAware ADS-B
Fri 04:17:49 PM 42.7950 -88.0380 66° East 198 228 4,300 -211 Descending FlightAware ADS-B
Fri 04:18:15 PM 42.8050 -88.0090 65° Northeast 200 230 4,300 -321 Level FlightAware ADS-B
Fri 04:18:45 PM 42.8160 -87.9760 66° East 174 200 4,000 -800 Descending FlightAware ADS-B
Fri 04:19:15 PM 42.8270 -87.9480 62° Northeast 176 203 3,500 -1,019 Descending FlightAware ADS-B
Fri 04:19:38 PM 42.8380 -87.9260 56° Northeast 167 192 3,100 -1,026 Descending FlightAware ADS-B
Fri 04:20:31 PM 42.8636 -87.9064 56° Northeast 164 189 2,200 -835 Descending Chicago Center
Fri 04:21:33 PM 42.9056 -87.9008 North 147 169 1,500 -677 Descending Chicago Center
Fri 04:24:00 PM 42.9333 -87.8833 66° East  Level FlightAware Approximate

Login

Don't have an account? Register now (free) for customized features, flight alerts, and more!